createdAt,value
2023-03-29T00:02:33.811Z,100248.09
2023-03-29T00:06:39.465Z,100248.06
2023-03-29T00:10:43.359Z,100251.59
2023-03-29T00:14:46.597Z,100250.78
2023-03-29T00:18:51.329Z,100260.28
2023-03-29T00:22:54.439Z,100253.41
2023-03-29T00:26:57.569Z,100255.97
2023-03-29T00:31:11.493Z,100253.41
2023-03-29T00:35:16.787Z,100255.97
2023-03-29T00:39:20.953Z,100261.09
2023-03-29T00:43:24.209Z,100264.50
2023-03-29T00:47:32.859Z,100261.09
2023-03-29T00:51:39.862Z,100255.97
2023-03-29T00:55:48.808Z,100252.53
2023-03-29T00:59:53.876Z,100250.00
2023-03-29T01:04:05.097Z,100244.81
2023-03-29T01:08:18.608Z,100243.13
2023-03-29T01:12:25.743Z,100252.63
2023-03-29T01:16:30.608Z,100256.88
2023-03-29T01:20:49.225Z,100248.28
2023-03-29T01:25:07.419Z,100253.44
2023-03-29T01:29:15.600Z,100251.72
2023-03-29T01:33:23.674Z,100243.97
2023-03-29T01:37:34.101Z,100252.56
2023-03-29T01:41:47.330Z,100252.59
2023-03-29T01:45:56.842Z,100256.03
2023-03-29T01:50:08.263Z,100256.88
2023-03-29T01:54:16.007Z,100253.50
2023-03-29T01:58:21.162Z,100256.09
2023-03-29T02:02:28.745Z,100249.22
2023-03-29T02:06:36.247Z,100258.69
2023-03-29T02:10:39.945Z,100253.53
2023-03-29T02:14:43.484Z,100255.25
2023-03-29T02:18:50.696Z,100255.25
2023-03-29T02:22:58.766Z,100260.44
2023-03-29T02:27:02.660Z,100269.88
2023-03-29T02:31:12.632Z,100263.03
2023-03-29T02:35:22.071Z,100259.59
2023-03-29T02:39:27.417Z,100263.03
2023-03-29T02:43:31.310Z,100263.88
2023-03-29T02:47:39.896Z,100260.47
2023-03-29T02:51:49.071Z,100263.88
2023-03-29T02:55:54.109Z,100265.59
2023-03-29T03:00:00.135Z,100261.31
2023-03-29T03:04:03.877Z,100263.88
2023-03-29T03:08:09.175Z,100257.88
2023-03-29T03:12:14.974Z,100262.19
2023-03-29T03:20:41.225Z,100263.88
2023-03-29T03:24:46.359Z,100263.03
2023-03-29T03:28:49.487Z,100270.75
2023-03-29T03:32:52.246Z,100269.91
2023-03-29T03:36:57.756Z,100279.34
2023-03-29T03:41:03.297Z,100279.34
2023-03-29T03:45:08.507Z,100281.03
2023-03-29T03:49:11.477Z,100289.59
2023-03-29T03:53:15.320Z,100293.88
2023-03-29T03:57:19.920Z,100301.56
2023-03-29T04:01:22.884Z,100297.28
2023-03-29T04:05:25.867Z,100292.16
2023-03-29T04:09:29.813Z,100291.31
2023-03-29T04:13:35.115Z,100304.19
2023-03-29T04:17:38.239Z,100299.03
2023-03-29T04:21:40.948Z,100293.91
2023-03-29T04:25:43.986Z,100299.91
2023-03-29T04:29:49.088Z,100311.06
2023-03-29T04:33:52.307Z,100308.47
2023-03-29T04:37:55.946Z,100304.19
2023-03-29T04:41:59.030Z,100300.75
2023-03-29T04:46:03.495Z,100305.03
2023-03-29T04:50:09.047Z,100311.06
2023-03-29T04:54:11.968Z,100303.34
2023-03-29T04:58:15.204Z,100307.66
2023-03-29T05:02:20.233Z,100308.50
2023-03-29T05:06:23.180Z,100311.06
2023-03-29T05:10:26.019Z,100316.25
2023-03-29T05:14:28.991Z,100307.66
2023-03-29T05:18:33.082Z,100305.09
2023-03-29T05:22:36.547Z,100317.97
2023-03-29T05:26:40.215Z,100316.13
2023-03-29T05:30:43.316Z,100307.22
2023-03-29T05:34:47.519Z,100309.94
2023-03-29T05:38:52.458Z,100321.06
2023-03-29T05:42:55.345Z,100319.25
2023-03-29T05:47:01.699Z,100323.94
2023-03-29T05:51:06.469Z,100318.50
2023-03-29T05:55:10.633Z,100328.28
2023-03-29T05:59:13.909Z,100327.63
2023-03-29T06:03:21.131Z,100328.78
2023-03-29T06:07:27.193Z,100328.00
2023-03-29T06:11:30.739Z,100336.66
2023-03-29T06:15:33.604Z,100331.19
2023-03-29T06:19:36.845Z,100341.63
2023-03-29T06:23:42.082Z,100350.78
2023-03-29T06:27:46.904Z,100349.69
2023-03-29T06:31:50.346Z,100340.09
2023-03-29T06:35:53.624Z,100344.25
2023-03-29T06:39:58.253Z,100350.50
2023-03-29T06:44:01.646Z,100350.53
2023-03-29T06:48:06.590Z,100356.59
2023-03-29T06:52:10.356Z,100353.97
2023-03-29T06:56:14.934Z,100362.50
2023-03-29T07:00:28.235Z,100366.03
2023-03-29T07:04:32.685Z,100368.78
2023-03-29T07:08:43.323Z,100365.78
2023-03-29T07:12:48.309Z,100362.28
2023-03-29T07:16:52.170Z,100370.31
2023-03-29T07:20:55.068Z,100365.72
2023-03-29T07:24:58.358Z,100364.69
2023-03-29T07:29:05.267Z,100361.91
2023-03-29T07:33:09.767Z,100364.72
2023-03-29T07:37:12.553Z,100367.66
2023-03-29T07:41:15.867Z,100353.22
2023-03-29T07:45:26.630Z,100358.16
2023-03-29T07:49:31.307Z,100355.72
2023-03-29T07:53:34.233Z,100355.84
2023-03-29T07:57:37.413Z,100346.41
2023-03-29T08:01:42.352Z,100354.19
2023-03-29T08:05:46.249Z,100347.59
2023-03-29T08:09:49.316Z,100351.63
2023-03-29T08:13:53.080Z,100339.84
2023-03-29T08:17:57.360Z,100337.63
2023-03-29T08:22:02.955Z,100340.72
2023-03-29T08:26:08.821Z,100332.22
2023-03-29T08:30:12.636Z,100330.84
2023-03-29T08:34:16.766Z,100324.75
2023-03-29T08:38:19.933Z,100339.09
2023-03-29T08:42:41.988Z,100331.66
2023-03-29T08:46:50.863Z,100321.00
2023-03-29T08:51:02.282Z,100316.38
2023-03-29T08:55:15.704Z,100313.88
2023-03-29T08:59:23.242Z,100320.03
2023-03-29T09:03:30.136Z,100329.06
2023-03-29T09:07:34.620Z,100317.75
2023-03-29T09:11:56.386Z,100322.13
2023-03-29T09:16:12.031Z,100318.75
2023-03-29T09:20:25.201Z,100319.72
2023-03-29T09:24:48.389Z,100309.06
2023-03-29T09:29:02.946Z,100308.75
2023-03-29T09:33:13.831Z,100300.81
2023-03-29T09:37:24.807Z,100305.84
2023-03-29T09:41:35.749Z,100298.69
2023-03-29T09:45:42.093Z,100297.22
2023-03-29T09:49:51.432Z,100284.66
2023-03-29T09:53:59.688Z,100275.34
2023-03-29T09:58:14.679Z,100272.69
2023-03-29T10:02:21.464Z,100279.34
2023-03-29T10:06:27.042Z,100285.78
2023-03-29T10:10:34.989Z,100288.28
2023-03-29T10:14:43.904Z,100271.75
2023-03-29T10:18:47.490Z,100274.41
2023-03-29T10:22:58.433Z,100272.13
2023-03-29T10:27:04.000Z,100262.00
2023-03-29T10:31:09.454Z,100266.78
2023-03-29T10:35:23.856Z,100264.78
2023-03-29T10:39:32.174Z,100260.88
2023-03-29T10:43:39.526Z,100257.88
2023-03-29T10:47:46.919Z,100253.53
2023-03-29T10:51:51.776Z,100244.66
2023-03-29T10:56:05.698Z,100239.19
2023-03-29T11:00:19.967Z,100241.03
2023-03-29T11:04:38.218Z,100225.41
2023-03-29T11:08:50.800Z,100234.75
2023-03-29T11:13:01.579Z,100228.44
2023-03-29T11:17:17.435Z,100222.06
2023-03-29T11:21:30.447Z,100215.56
2023-03-29T11:25:43.433Z,100224.13
2023-03-29T11:29:58.819Z,100219.13
2023-03-29T11:34:17.829Z,100208.75
2023-03-29T11:38:28.270Z,100204.41
2023-03-29T11:42:34.673Z,100200.59
2023-03-29T11:46:41.871Z,100198.31
2023-03-29T11:50:52.598Z,100190.09
2023-03-29T11:55:04.129Z,100203.19
2023-03-29T11:59:14.803Z,100184.03
2023-03-29T12:03:24.056Z,100177.09
2023-03-29T12:07:33.228Z,100176.34
2023-03-29T12:11:41.809Z,100172.34
2023-03-29T12:15:49.739Z,100162.69
2023-03-29T12:20:04.545Z,100162.72
2023-03-29T12:24:08.274Z,100171.13
2023-03-29T12:28:29.417Z,100163.53
2023-03-29T12:32:50.839Z,100162.16
2023-03-29T12:37:12.483Z,100158.09
2023-03-29T12:41:21.910Z,100154.22
2023-03-29T12:45:33.955Z,100151.84
2023-03-29T12:49:39.720Z,100148.16
2023-03-29T12:53:49.523Z,100144.41
2023-03-29T12:58:06.139Z,100143.16
2023-03-29T13:02:35.001Z,100143.38
2023-03-29T13:07:05.694Z,100144.03
2023-03-29T13:11:14.780Z,100136.66
2023-03-29T13:15:25.454Z,100130.41
2023-03-29T13:19:39.901Z,100130.66
2023-03-29T13:23:54.634Z,100127.09
2023-03-29T13:28:06.387Z,100119.69
2023-03-29T13:32:34.956Z,100108.69
2023-03-29T13:36:55.101Z,100107.75
2023-03-29T13:41:03.742Z,100099.34
2023-03-29T13:45:18.744Z,100103.59
2023-03-29T13:49:25.817Z,100097.66
2023-03-29T13:53:35.134Z,100096.38
2023-03-29T13:57:43.869Z,100086.09
2023-03-29T14:01:53.633Z,100083.47
2023-03-29T14:06:01.429Z,100082.00
2023-03-29T14:10:08.129Z,100086.91
2023-03-29T14:14:12.903Z,100082.53
2023-03-29T14:18:19.428Z,100082.16
2023-03-29T14:22:22.768Z,100073.16
2023-03-29T14:26:31.746Z,100067.75
2023-03-29T14:30:35.365Z,100071.84
2023-03-29T14:34:40.721Z,100069.97
2023-03-29T14:38:48.666Z,100071.06
2023-03-29T14:42:53.455Z,100068.59
2023-03-29T14:46:57.444Z,100071.88
2023-03-29T14:51:00.758Z,100067.88
2023-03-29T14:55:04.735Z,100065.47
2023-03-29T14:59:26.488Z,100052.91
2023-03-29T15:03:29.616Z,100061.44
2023-03-29T15:07:34.685Z,100063.53
2023-03-29T15:11:40.100Z,100059.13
2023-03-29T15:15:45.280Z,100056.50
2023-03-29T15:19:48.493Z,100047.72
2023-03-29T15:24:00.176Z,100046.91
2023-03-29T15:28:03.137Z,100038.66
2023-03-29T15:32:10.283Z,100029.16
2023-03-29T15:36:14.720Z,100037.56
2023-03-29T15:40:21.545Z,100031.44
2023-03-29T15:44:28.652Z,100036.63
2023-03-29T15:48:34.008Z,100032.94
2023-03-29T15:52:37.217Z,100026.66
2023-03-29T15:56:48.816Z,100038.84
2023-03-29T16:00:55.725Z,100029.22
2023-03-29T16:05:01.949Z,100032.78
2023-03-29T16:09:08.847Z,100021.50
2023-03-29T16:13:14.696Z,100019.63
2023-03-29T16:17:17.843Z,100013.66
2023-03-29T16:21:24.519Z,100011.16
2023-03-29T16:25:27.620Z,100007.84
2023-03-29T16:29:30.828Z,100008.75
2023-03-29T16:33:33.869Z,100002.66
2023-03-29T16:37:38.396Z,99997.63
2023-03-29T16:41:42.314Z,99993.19
2023-03-29T16:45:46.398Z,99994.88
2023-03-29T16:49:49.325Z,99997.47
2023-03-29T16:53:54.327Z,99985.34
2023-03-29T16:57:57.692Z,99980.19
2023-03-29T17:02:03.247Z,99977.44
2023-03-29T17:06:07.706Z,99983.53
2023-03-29T17:10:13.443Z,99980.94
2023-03-29T17:14:16.086Z,99983.31
2023-03-29T17:18:19.320Z,99986.47
2023-03-29T17:22:22.906Z,99979.94
2023-03-29T17:26:27.684Z,99987.22
2023-03-29T17:30:31.151Z,99991.63
2023-03-29T17:34:34.343Z,99989.03
2023-03-29T17:38:38.242Z,99989.13
2023-03-29T17:42:46.647Z,99986.75
2023-03-29T17:46:49.665Z,99991.44
2023-03-29T17:50:52.923Z,99995.34
2023-03-29T17:54:56.054Z,99997.47
2023-03-29T17:59:00.696Z,100004.81
2023-03-29T18:03:03.725Z,100006.16
2023-03-29T18:07:06.918Z,100001.41
2023-03-29T18:11:12.404Z,99991.31
2023-03-29T18:15:16.922Z,99991.56
2023-03-29T18:19:20.087Z,99985.66
2023-03-29T18:23:26.460Z,99996.16
2023-03-29T18:27:29.563Z,99987.50
2023-03-29T18:31:33.990Z,99989.97
2023-03-29T18:35:39.353Z,99979.56
2023-03-29T18:39:43.357Z,99987.25
2023-03-29T18:43:47.934Z,99989.66
2023-03-29T18:47:56.121Z,99993.72
2023-03-29T18:51:58.965Z,99999.41
2023-03-29T18:56:03.021Z,99998.44
2023-03-29T19:00:12.812Z,99994.00
2023-03-29T19:04:17.022Z,99992.91
2023-03-29T19:08:19.890Z,99998.97
2023-03-29T19:12:22.846Z,99995.50
2023-03-29T19:16:27.681Z,99999.06
2023-03-29T19:20:32.165Z,99996.47
2023-03-29T19:24:35.315Z,99990.41
2023-03-29T19:28:37.850Z,99995.59
2023-03-29T19:32:40.608Z,99982.38
2023-03-29T19:36:44.847Z,99984.75
2023-03-29T19:40:48.183Z,99983.75
2023-03-29T19:44:51.300Z,99981.00
2023-03-29T19:48:58.040Z,99984.41
2023-03-29T19:53:02.401Z,99977.44
2023-03-29T19:57:07.414Z,99963.66
2023-03-29T20:01:10.471Z,99956.69
2023-03-29T20:05:16.874Z,99953.25
2023-03-29T20:09:21.210Z,99950.00
2023-03-29T20:13:37.394Z,99945.59
2023-03-29T20:17:42.016Z,99938.81
2023-03-29T20:21:44.999Z,99936.50
2023-03-29T20:25:49.302Z,99933.41
2023-03-29T20:29:52.678Z,99918.03
2023-03-29T20:33:57.546Z,99921.69
2023-03-29T20:38:00.879Z,99905.78
2023-03-29T20:42:06.568Z,99910.50
2023-03-29T20:46:18.554Z,99908.28
2023-03-29T20:50:26.505Z,99902.69
2023-03-29T20:54:29.404Z,99901.41
2023-03-29T20:58:34.250Z,99902.66
2023-03-29T21:02:38.344Z,99901.75
2023-03-29T21:06:41.682Z,99897.50
2023-03-29T21:10:48.086Z,99889.03
2023-03-29T21:14:52.111Z,99892.75
2023-03-29T21:18:55.063Z,99889.56
2023-03-29T21:22:58.386Z,99884.72
2023-03-29T21:27:02.028Z,99891.94
2023-03-29T21:31:08.400Z,99885.78
2023-03-29T21:35:13.030Z,99888.16
2023-03-29T21:39:17.734Z,99889.81
2023-03-29T21:43:23.095Z,99884.09
2023-03-29T21:47:27.536Z,99881.44
2023-03-29T21:51:30.097Z,99889.41
2023-03-29T21:55:36.410Z,99874.84
2023-03-29T21:59:39.363Z,99870.59
2023-03-29T22:03:43.509Z,99868.91
2023-03-29T22:07:50.548Z,99871.59
2023-03-29T22:11:53.587Z,99863.88
2023-03-29T22:16:00.167Z,99866.78
2023-03-29T22:20:14.134Z,99869.69
2023-03-29T22:24:17.896Z,99853.19
2023-03-29T22:28:20.945Z,99862.31
2023-03-29T22:32:23.831Z,99845.50
2023-03-29T22:36:29.788Z,99849.69
2023-03-29T22:40:33.521Z,99854.66
2023-03-29T22:44:36.589Z,99850.03
2023-03-29T22:48:40.062Z,99846.19
2023-03-29T22:52:44.784Z,99832.50
2023-03-29T22:56:48.046Z,99835.13
2023-03-29T23:00:54.125Z,99825.53
2023-03-29T23:04:57.107Z,99829.97
2023-03-29T23:09:04.712Z,99825.84
2023-03-29T23:13:10.206Z,99828.97
2023-03-29T23:17:13.649Z,99834.63
2023-03-29T23:21:16.494Z,99834.13
2023-03-29T23:25:21.102Z,99822.81
2023-03-29T23:29:27.002Z,99820.88
2023-03-29T23:33:33.679Z,99813.00
2023-03-29T23:37:38.062Z,99806.91
2023-03-29T23:41:42.606Z,99809.63
2023-03-29T23:45:45.589Z,99803.41
2023-03-29T23:49:48.522Z,99794.22
2023-03-29T23:53:51.974Z,99789.75
2023-03-29T23:57:56.390Z,99789.00
